Milwaukee, Wisconsin
Traffic Map
Current Weather Conditions
Milwaukee, Wisconsin
Few Clouds
Few Clouds
64°
Feels Like: 64°
Wind Chill: 64° Ceiling: Unl
Heat Index: 64° Visibility: 10mi
Dew Point: 60° Wind: 8mph
Humidity: 87% Direction: 230° (SW)
Pressure: 29.8in Gusts: 0mph
Raw Report DataKMKE 270752Z 23007KT 10SM FEW018 18/16 A2980 RMK AO2 SLP087 T01780156
Traffic Incident Summary
Active as of:
Severity:
Category:
InformationThere was an issue retrieving the traffic information for this location. Please try a different location or try again shortly.
Advertisements
Track Severe Weather on mobile